Corbin Foss — WDB5265 — position and weather

sailwx.info

Track history (hours):
 
Tides and Currents Weather Stations Pressure Air Temp Water Temp Dewpoint Dewpoint Depression Visibility Wind Speed Wind Dir Waves Ship Positions

Corbin Foss

Owner: Foss International, Inc, Seattle, WA. More information available from US FCC via Universal Licensing System and Coast Guard Vessel Documentation Center.

Last reported at 2017-May-28 01:18 UTC. Time now 2017-Jun-28 12:28 UTC.
Position N 27°37' W 082°51'.
Warning: this ship's position is 31 days out of date.

Type: Towing. MMSI: 366902220.

Date/timePositionNaut miles runAvg speedWind from/ knotsBaromVisibWave heightAir tempDewpointWater temp
2017-May-28 01:18N 27°37' W 082°51'2 7.3
2017-May-28 01:00N 27°36' W 082°49'4 8.2
2017-May-28 00:30N 27°36' W 082°44'4 7.9
2017-May-28 00:00N 27°37' W 082°40'3 6.8
2017-May-27 23:30N 27°39' W 082°37'3 2.5
2017-May-27 22:22N 27°38' W 082°34'0 0.0
2017-May-27 21:37N 27°38' W 082°34'0 0.0
2017-May-27 21:22N 27°38' W 082°34'0 0.0
2017-May-27 17:28N 27°38' W 082°34'0 0.0
2017-May-27 16:58N 27°38' W 082°34'0 0.0
2017-May-27 16:25N 27°38' W 082°34'0 0.0
2017-May-27 15:58N 27°38' W 082°34'0 0.0
2017-May-27 15:22N 27°38' W 082°34'0 0.0
2017-May-27 14:55N 27°38' W 082°34'0 0.0
2017-May-27 14:25N 27°38' W 082°34'0 0.0
2017-May-27 13:25N 27°38' W 082°34'0 0.0
2017-May-27 12:55N 27°38' W 082°34'0 0.0
2017-May-27 12:28N 27°38' W 082°34'0 0.0
2017-May-27 11:58N 27°38' W 082°34'0 0.0
2017-May-27 11:28N 27°38' W 082°34'0 0.0
2017-May-27 10:58N 27°38' W 082°34'0 0.0
2017-May-27 10:25N 27°38' W 082°34'0 0.0
2017-May-27 09:58N 27°38' W 082°34'0 0.0
2017-May-27 09:28N 27°38' W 082°34'0 0.0
2017-May-27 08:58N 27°38' W 082°34'0 0.0
2017-May-27 08:28N 27°38' W 082°34'0 0.0
2017-May-27 07:58N 27°38' W 082°34'0 0.0
2017-May-27 07:28N 27°38' W 082°34'0 0.0
2017-May-27 06:55N 27°38' W 082°34'0 0.0
2017-May-27 06:28N 27°38' W 082°34'0 0.0
2017-May-27 05:55N 27°38' W 082°34'0 0.0
2017-May-27 05:25N 27°38' W 082°34'0 0.0
2017-May-27 04:58N 27°38' W 082°34'0 0.0
2017-May-27 04:28N 27°38' W 082°34'0 0.0
2017-May-27 03:58N 27°38' W 082°34'0 0.0
2017-May-27 03:16N 27°38' W 082°34'0 0.0
2017-May-27 02:55N 27°38' W 082°34'0 0.0
2017-May-27 02:25N 27°38' W 082°34'0 0.0
2017-May-27 01:58N 27°38' W 082°34'0 0.0
2017-May-27 01:25N 27°38' W 082°34'0 0.0
2017-May-27 00:55N 27°38' W 082°34'0 0.0
2017-May-27 00:22N 27°38' W 082°34'0 0.0
2017-May-26 23:58N 27°38' W 082°34'0 0.0
2017-May-26 23:25N 27°38' W 082°34'0 0.0
2017-May-26 22:43N 27°38' W 082°34'0 0.0
2017-May-26 22:25N 27°38' W 082°34'0 0.0
2017-May-26 21:58N 27°38' W 082°34'0 0.0
2017-May-26 21:30N 27°38' W 082°34'1 1.7
2017-May-26 21:00N 27°39' W 082°35'2 4.3
2017-May-26 20:26N 27°39' W 082°37'0 0.6
2017-May-26 19:58N 27°39' W 082°38'  
2017-May-23 20:27N 27°38' W 082°37'3 5.6
2017-May-23 19:59N 27°38' W 082°34'1 0.1
2017-May-23 11:58N 27°38' W 082°34'0 0.0
2017-May-23 10:58N 27°38' W 082°34'0 0.0
2017-May-23 10:19N 27°38' W 082°34'0 0.0
2017-May-23 09:46N 27°38' W 082°34'0 0.0
2017-May-23 09:28N 27°38' W 082°34'0 0.0
2017-May-23 08:46N 27°38' W 082°34'0 0.0
2017-May-23 08:28N 27°38' W 082°34'0 0.0
2017-May-23 07:58N 27°38' W 082°34'0 0.0
2017-May-23 07:28N 27°38' W 082°34'0 0.0
2017-May-23 06:25N 27°38' W 082°34'0 0.0
2017-May-23 05:58N 27°38' W 082°34'0 0.0
2017-May-23 05:28N 27°38' W 082°34'0 0.0
2017-May-23 04:58N 27°38' W 082°34'0 0.0
2017-May-23 04:22N 27°38' W 082°34'0 0.0
2017-May-23 03:52N 27°38' W 082°34'0 0.0
2017-May-23 03:22N 27°38' W 082°34'0 0.0
2017-May-22 13:25N 27°38' W 082°34'0 0.0
2017-May-22 12:58N 27°38' W 082°34'0 0.0
2017-May-22 12:28N 27°38' W 082°34'0 0.0
2017-May-22 11:49N 27°38' W 082°34'0 0.0
2017-May-22 10:37N 27°38' W 082°34'0 0.0
2017-May-22 10:28N 27°38' W 082°34'0 0.0
2017-May-22 03:28N 27°38' W 082°34'0 0.0
2017-May-20 23:47N 27°38' W 082°34'0 0.0
2017-May-20 20:35N 27°38' W 082°34'0 0.0
2017-May-20 20:05N 27°38' W 082°34'0 0.0
2017-May-20 15:23N 27°38' W 082°34'0 0.0
2017-May-20 14:20N 27°38' W 082°34'2 2.3
2017-May-20 13:30N 27°39' W 082°36'2 3.0
2017-May-20 12:57N 27°39' W 082°37'  
Track history (hours):
 
Tides and Currents Weather Stations Pressure Air Temp Water Temp Dewpoint Dewpoint Depression Visibility Wind Speed Wind Dir Waves Ship Positions

Corbin Foss

Owner: Foss International, Inc, Seattle, WA. More information available from US FCC via Universal Licensing System and Coast Guard Vessel Documentation Center.

Last reported at 2017-May-28 01:18 UTC. Time now 2017-Jun-28 12:28 UTC.
Position N 27°37' W 082°51'.
Warning: this ship's position is 31 days out of date.

Type: Towing. MMSI: 366902220.

Date/timePositionNaut miles runAvg speedWind from/ knotsBaromVisibWave heightAir tempDewpointWater temp
2017-May-28 01:18N 27°37' W 082°51'2 7.3
2017-May-28 01:00N 27°36' W 082°49'4 8.2
2017-May-28 00:30N 27°36' W 082°44'4 7.9
2017-May-28 00:00N 27°37' W 082°40'3 6.8
2017-May-27 23:30N 27°39' W 082°37'3 2.5
2017-May-27 22:22N 27°38' W 082°34'0 0.0
2017-May-27 21:37N 27°38' W 082°34'0 0.0
2017-May-27 21:22N 27°38' W 082°34'0 0.0
2017-May-27 17:28N 27°38' W 082°34'0 0.0
2017-May-27 16:58N 27°38' W 082°34'0 0.0
2017-May-27 16:25N 27°38' W 082°34'0 0.0
2017-May-27 15:58N 27°38' W 082°34'0 0.0
2017-May-27 15:22N 27°38' W 082°34'0 0.0
2017-May-27 14:55N 27°38' W 082°34'0 0.0
2017-May-27 14:25N 27°38' W 082°34'0 0.0
2017-May-27 13:25N 27°38' W 082°34'0 0.0
2017-May-27 12:55N 27°38' W 082°34'0 0.0
2017-May-27 12:28N 27°38' W 082°34'0 0.0
2017-May-27 11:58N 27°38' W 082°34'0 0.0
2017-May-27 11:28N 27°38' W 082°34'0 0.0
2017-May-27 10:58N 27°38' W 082°34'0 0.0
2017-May-27 10:25N 27°38' W 082°34'0 0.0
2017-May-27 09:58N 27°38' W 082°34'0 0.0
2017-May-27 09:28N 27°38' W 082°34'0 0.0
2017-May-27 08:58N 27°38' W 082°34'0 0.0
2017-May-27 08:28N 27°38' W 082°34'0 0.0
2017-May-27 07:58N 27°38' W 082°34'0 0.0
2017-May-27 07:28N 27°38' W 082°34'0 0.0
2017-May-27 06:55N 27°38' W 082°34'0 0.0
2017-May-27 06:28N 27°38' W 082°34'0 0.0
2017-May-27 05:55N 27°38' W 082°34'0 0.0
2017-May-27 05:25N 27°38' W 082°34'0 0.0
2017-May-27 04:58N 27°38' W 082°34'0 0.0
2017-May-27 04:28N 27°38' W 082°34'0 0.0
2017-May-27 03:58N 27°38' W 082°34'0 0.0
2017-May-27 03:16N 27°38' W 082°34'0 0.0
2017-May-27 02:55N 27°38' W 082°34'0 0.0
2017-May-27 02:25N 27°38' W 082°34'0 0.0
2017-May-27 01:58N 27°38' W 082°34'0 0.0
2017-May-27 01:25N 27°38' W 082°34'0 0.0
2017-May-27 00:55N 27°38' W 082°34'0 0.0
2017-May-27 00:22N 27°38' W 082°34'0 0.0
2017-May-26 23:58N 27°38' W 082°34'0 0.0
2017-May-26 23:25N 27°38' W 082°34'0 0.0
2017-May-26 22:43N 27°38' W 082°34'0 0.0
2017-May-26 22:25N 27°38' W 082°34'0 0.0
2017-May-26 21:58N 27°38' W 082°34'0 0.0
2017-May-26 21:30N 27°38' W 082°34'1 1.7
2017-May-26 21:00N 27°39' W 082°35'2 4.3
2017-May-26 20:26N 27°39' W 082°37'0 0.6
2017-May-26 19:58N 27°39' W 082°38'  
2017-May-23 20:27N 27°38' W 082°37'3 5.6
2017-May-23 19:59N 27°38' W 082°34'1 0.1
2017-May-23 11:58N 27°38' W 082°34'0 0.0
2017-May-23 10:58N 27°38' W 082°34'0 0.0
2017-May-23 10:19N 27°38' W 082°34'0 0.0
2017-May-23 09:46N 27°38' W 082°34'0 0.0
2017-May-23 09:28N 27°38' W 082°34'0 0.0
2017-May-23 08:46N 27°38' W 082°34'0 0.0
2017-May-23 08:28N 27°38' W 082°34'0 0.0
2017-May-23 07:58N 27°38' W 082°34'0 0.0
2017-May-23 07:28N 27°38' W 082°34'0 0.0
2017-May-23 06:25N 27°38' W 082°34'0 0.0
2017-May-23 05:58N 27°38' W 082°34'0 0.0
2017-May-23 05:28N 27°38' W 082°34'0 0.0
2017-May-23 04:58N 27°38' W 082°34'0 0.0
2017-May-23 04:22N 27°38' W 082°34'0 0.0
2017-May-23 03:52N 27°38' W 082°34'0 0.0
2017-May-23 03:22N 27°38' W 082°34'0 0.0
2017-May-22 13:25N 27°38' W 082°34'0 0.0
2017-May-22 12:58N 27°38' W 082°34'0 0.0
2017-May-22 12:28N 27°38' W 082°34'0 0.0
2017-May-22 11:49N 27°38' W 082°34'0 0.0
2017-May-22 10:37N 27°38' W 082°34'0 0.0
2017-May-22 10:28N 27°38' W 082°34'0 0.0
2017-May-22 03:28N 27°38' W 082°34'0 0.0
2017-May-20 23:47N 27°38' W 082°34'0 0.0
2017-May-20 20:35N 27°38' W 082°34'0 0.0
2017-May-20 20:05N 27°38' W 082°34'0 0.0
2017-May-20 15:23N 27°38' W 082°34'0 0.0
2017-May-20 14:20N 27°38' W 082°34'2 2.3
2017-May-20 13:30N 27°39' W 082°36'2 3.0
2017-May-20 12:57N 27°39' W 082°37'  

Dump ship's entire track history